Time;durP1;ratioP1;P1;durP2;ratioP2;P2;SDS_P1;SDS_P2;PMS_P1;PMS_P2;Temp;Humidity;BMP_temperature;BMP_pressure;BME280_temperature;BME280_humidity;BME280_pressure;Samples;Min_cycle;Max_cycle;Signal;HPM_P1;HPM_P2
2023/05/03 00:00:44;;;;;;;4.30;3.85;;;7.10;99.90;;;;;;2095391;28;20052;-70
2023/05/03 00:01:44;;;;;;;4.65;3.70;;;7.10;99.90;;;;;;2091038;28;20112;-70
2023/05/03 00:02:45;;;;;;;7.00;4.07;;;7.10;99.90;;;;;;2092758;28;20061;-70
2023/05/03 00:03:47;;;;;;;5.15;3.60;;;7.10;99.90;;;;;;2092114;28;20016;-70
2023/05/03 00:04:52;;;;;;;5.63;4.50;;;7.00;99.90;;;;;;2092587;28;20021;-70
2023/05/03 00:05:52;;;;;;;5.15;3.78;;;7.00;99.90;;;;;;2095113;28;20012;-70
2023/05/03 00:06:54;;;;;;;6.22;4.05;;;7.00;99.90;;;;;;2095528;28;20025;-70
2023/05/03 00:07:55;;;;;;;4.97;3.80;;;7.00;99.90;;;;;;2091801;28;20032;-70
2023/05/03 00:08:56;;;;;;;4.68;3.60;;;7.00;99.90;;;;;;2095880;28;20020;-70
2023/05/03 00:09:57;;;;;;;5.18;3.80;;;7.00;99.90;;;;;;2093061;28;20078;-70
2023/05/03 00:11:00;;;;;;;6.93;4.30;;;7.00;99.90;;;;;;2090897;28;20059;-70
2023/05/03 00:12:01;;;;;;;3.65;3.17;;;7.00;99.90;;;;;;2092628;28;20028;-70
2023/05/03 00:13:02;;;;;;;4.90;3.67;;;6.90;99.90;;;;;;2092833;28;20095;-70
2023/05/03 00:14:02;;;;;;;4.72;3.55;;;6.90;99.90;;;;;;2093136;28;20077;-70
2023/05/03 00:15:03;;;;;;;6.65;3.90;;;6.90;99.90;;;;;;2095641;28;20028;-70
2023/05/03 00:16:05;;;;;;;5.93;3.88;;;6.90;99.90;;;;;;2093626;28;20052;-70
2023/05/03 00:17:06;;;;;;;5.28;4.05;;;6.90;99.90;;;;;;2093946;28;20055;-70
2023/05/03 00:18:06;;;;;;;5.65;4.13;;;6.90;99.90;;;;;;2094415;28;20515;-70
2023/05/03 00:19:07;;;;;;;5.80;4.45;;;6.90;99.90;;;;;;2092695;28;20373;-70
2023/05/03 00:20:08;;;;;;;7.25;5.00;;;6.80;99.90;;;;;;2091704;28;20063;-70
2023/05/03 00:21:08;;;;;;;8.05;5.00;;;6.80;99.90;;;;;;2093049;28;20021;-70
2023/05/03 00:22:09;;;;;;;8.68;5.18;;;6.80;99.90;;;;;;2093592;28;20027;-70
2023/05/03 00:23:10;;;;;;;9.15;6.13;;;6.80;99.90;;;;;;2092177;28;20083;-70
2023/05/03 00:24:11;;;;;;;7.55;4.70;;;6.80;99.90;;;;;;2094552;28;20119;-70
2023/05/03 00:25:11;;;;;;;6.95;4.72;;;6.80;99.90;;;;;;2093650;28;20111;-70
2023/05/03 00:26:12;;;;;;;6.28;4.95;;;6.70;99.90;;;;;;2093405;28;20025;-70
2023/05/03 00:27:12;;;;;;;6.28;5.22;;;6.70;99.90;;;;;;2092931;28;20037;-70
2023/05/03 00:28:13;;;;;;;7.00;5.25;;;6.70;99.90;;;;;;2092409;28;20040;-70
2023/05/03 00:29:13;;;;;;;6.53;5.68;;;6.70;99.90;;;;;;2091742;28;20132;-70
2023/05/03 00:30:14;;;;;;;6.70;5.50;;;6.70;99.90;;;;;;2092215;28;20028;-70
2023/05/03 00:31:15;;;;;;;7.85;5.30;;;6.70;99.90;;;;;;2090933;28;20028;-70
2023/05/03 00:32:15;;;;;;;9.15;5.15;;;6.70;99.90;;;;;;2092904;28;20092;-70
2023/05/03 00:33:16;;;;;;;7.03;5.75;;;6.70;99.90;;;;;;2091739;28;20036;-70
2023/05/03 00:34:16;;;;;;;7.72;5.00;;;6.60;99.90;;;;;;2091427;28;20037;-70
2023/05/03 00:35:17;;;;;;;12.38;5.85;;;6.60;99.90;;;;;;2095351;28;20054;-70
2023/05/03 00:36:17;;;;;;;7.22;5.80;;;6.60;99.90;;;;;;2094544;28;20040;-70
2023/05/03 00:37:18;;;;;;;10.65;5.53;;;6.60;99.90;;;;;;2093588;28;20033;-70
2023/05/03 00:38:18;;;;;;;7.57;5.45;;;6.60;99.90;;;;;;2092207;28;20440;-70
2023/05/03 00:39:19;;;;;;;10.18;5.40;;;6.60;99.90;;;;;;2092886;28;20100;-70
2023/05/03 00:40:19;;;;;;;6.60;5.07;;;6.60;99.90;;;;;;2094061;28;20074;-70
2023/05/03 00:41:20;;;;;;;8.88;6.10;;;6.60;99.90;;;;;;2091722;28;20099;-70
2023/05/03 00:42:20;;;;;;;6.82;5.45;;;6.60;99.90;;;;;;2093244;28;20475;-70
2023/05/03 00:43:21;;;;;;;6.68;4.80;;;6.50;99.90;;;;;;2093868;28;20025;-70
2023/05/03 00:44:21;;;;;;;5.80;5.18;;;6.50;99.90;;;;;;2092112;28;20391;-71
2023/05/03 00:45:22;;;;;;;7.70;5.63;;;6.50;99.90;;;;;;2094283;28;20036;-70
2023/05/03 00:46:23;;;;;;;8.52;6.13;;;6.50;99.90;;;;;;2094014;28;20016;-70
2023/05/03 00:47:23;;;;;;;6.22;5.60;;;6.50;99.90;;;;;;2094404;28;20059;-70
2023/05/03 00:48:24;;;;;;;6.93;5.35;;;6.50;99.90;;;;;;2090814;28;20040;-70
2023/05/03 00:49:25;;;;;;;8.95;6.32;;;6.50;99.90;;;;;;2092871;28;20035;-70
2023/05/03 00:50:26;;;;;;;10.23;7.28;;;6.50;99.90;;;;;;2090132;28;20025;-70
2023/05/03 00:51:27;;;;;;;9.82;6.75;;;6.40;99.90;;;;;;2093127;28;20032;-70
2023/05/03 00:52:28;;;;;;;9.75;6.13;;;6.40;99.90;;;;;;2096535;28;20032;-70
2023/05/03 00:53:30;;;;;;;6.68;5.95;;;6.40;99.90;;;;;;2093500;28;20040;-70
2023/05/03 00:54:32;;;;;;;11.13;6.60;;;6.40;99.90;;;;;;2094511;28;20036;-70
2023/05/03 00:55:34;;;;;;;8.82;6.22;;;6.40;99.90;;;;;;2094265;28;20134;-70
2023/05/03 00:56:36;;;;;;;7.63;6.15;;;6.40;99.90;;;;;;2092447;28;20033;-70
2023/05/03 00:57:36;;;;;;;8.77;6.00;;;6.40;99.90;;;;;;2094117;28;20544;-70
2023/05/03 00:58:39;;;;;;;8.15;5.78;;;6.40;99.90;;;;;;2094411;28;20404;-70
2023/05/03 00:59:39;;;;;;;7.35;5.68;;;6.30;99.90;;;;;;2094539;28;20029;-71
2023/05/03 01:00:40;;;;;;;7.25;6.28;;;6.30;99.90;;;;;;2093187;28;20028;-70
2023/05/03 01:01:41;;;;;;;7.90;5.93;;;6.30;99.90;;;;;;2093474;28;20049;-70
2023/05/03 01:02:41;;;;;;;9.18;5.50;;;6.30;99.90;;;;;;2091199;28;20032;-70
2023/05/03 01:03:43;;;;;;;7.63;5.32;;;6.30;99.90;;;;;;2094731;28;20107;-70
2023/05/03 01:04:44;;;;;;;6.93;4.63;;;6.30;99.90;;;;;;2092662;28;20594;-70
2023/05/03 01:05:51;;;;;;;6.35;5.00;;;6.30;99.90;;;;;;2095343;28;20125;-70
2023/05/03 01:07:05;;;;;;;6.57;5.30;;;6.30;99.90;;;;;;2094125;28;20100;-70
2023/05/03 01:08:08;;;;;;;7.47;5.05;;;6.30;99.90;;;;;;2092715;28;20526;-70
2023/05/03 01:09:26;;;;;;;5.22;4.30;;;6.20;99.90;;;;;;2094953;28;20028;-70
2023/05/03 01:10:39;;;;;;;6.35;4.22;;;6.20;99.90;;;;;;2092251;28;20031;-70
2023/05/03 01:12:07;;;;;;;7.13;5.25;;;6.20;99.90;;;;;;2095603;28;20021;-70
2023/05/03 01:13:32;;;;;;;6.28;4.82;;;6.20;99.90;;;;;;2097383;28;20349;-70
2023/05/03 01:14:56;;;;;;;5.95;4.57;;;6.10;99.90;;;;;;2092968;28;20051;-70
2023/05/03 01:16:28;;;;;;;5.65;4.63;;;6.10;99.90;;;;;;2093522;28;20021;-70
2023/05/03 01:17:35;;;;;;;5.57;4.50;;;6.10;99.90;;;;;;2093783;28;20655;-70
2023/05/03 01:18:43;;;;;;;4.68;4.13;;;6.00;99.90;;;;;;2093767;28;20025;-70
2023/05/03 01:19:47;;;;;;;4.00;3.65;;;6.00;99.90;;;;;;2094524;28;20024;-70
2023/05/03 01:20:49;;;;;;;6.95;4.45;;;6.00;99.90;;;;;;2091340;28;20035;-70
2023/05/03 01:21:58;;;;;;;5.55;4.13;;;6.00;99.90;;;;;;2089968;28;20070;-70
2023/05/03 01:23:04;;;;;;;5.97;4.38;;;6.00;99.90;;;;;;2092349;28;20032;-70
2023/05/03 01:24:15;;;;;;;6.70;4.00;;;6.00;99.90;;;;;;2092366;28;20067;-70
2023/05/03 01:25:15;;;;;;;4.55;4.03;;;6.00;99.90;;;;;;2099003;28;20021;-70
2023/05/03 01:26:23;;;;;;;5.35;3.90;;;5.90;99.90;;;;;;2097353;28;20032;-70
2023/05/03 01:27:24;;;;;;;4.68;4.03;;;6.00;99.90;;;;;;2090376;28;20609;-70
2023/05/03 01:28:24;;;;;;;9.50;4.50;;;5.90;99.90;;;;;;2092154;28;20483;-70
2023/05/03 01:29:25;;;;;;;5.40;4.60;;;5.90;99.90;;;;;;2094680;28;20025;-70
2023/05/03 01:30:27;;;;;;;7.07;4.60;;;5.90;99.90;;;;;;2089788;28;20488;-70
2023/05/03 01:31:47;;;;;;;4.53;4.05;;;5.90;99.90;;;;;;2093561;28;20108;-70
2023/05/03 01:32:55;;;;;;;5.43;4.20;;;5.90;99.90;;;;;;2092845;28;20036;-70
2023/05/03 01:34:11;;;;;;;5.97;4.63;;;5.90;99.90;;;;;;2093013;28;20598;-70
2023/05/03 01:35:35;;;;;;;5.40;3.83;;;5.90;99.90;;;;;;2093525;28;20025;-70
2023/05/03 01:36:37;;;;;;;5.57;4.32;;;5.90;99.90;;;;;;2092846;28;20033;-70
2023/05/03 01:37:38;;;;;;;5.47;4.10;;;5.80;99.90;;;;;;2095232;28;20111;-70
2023/05/03 01:38:39;;;;;;;5.50;4.20;;;5.80;99.90;;;;;;2092533;28;20032;-70
2023/05/03 01:40:00;;;;;;;6.32;4.45;;;5.80;99.90;;;;;;2092733;28;20618;-70
2023/05/03 01:41:05;;;;;;;7.07;4.65;;;5.80;99.90;;;;;;2092716;28;20762;-70
2023/05/03 01:42:06;;;;;;;8.73;4.45;;;5.80;99.90;;;;;;2092430;28;20106;-70
2023/05/03 01:43:09;;;;;;;6.03;4.32;;;5.80;99.90;;;;;;2091605;28;20025;-70
2023/05/03 01:44:10;;;;;;;4.90;4.45;;;5.80;99.90;;;;;;2093673;28;20036;-70
2023/05/03 01:45:11;;;;;;;6.53;4.90;;;5.80;99.90;;;;;;2091460;28;20055;-70
2023/05/03 01:46:12;;;;;;;5.57;4.93;;;5.80;99.90;;;;;;2093105;28;20107;-70
2023/05/03 01:47:14;;;;;;;7.03;4.40;;;5.80;99.90;;;;;;2094510;28;20040;-70
2023/05/03 01:48:16;;;;;;;5.75;4.47;;;5.70;99.90;;;;;;2092836;28;20111;-70
2023/05/03 01:49:16;;;;;;;6.45;4.85;;;5.70;99.90;;;;;;2092694;28;20107;-70
2023/05/03 01:50:17;;;;;;;5.30;4.80;;;5.70;99.90;;;;;;2096222;28;20032;-70
2023/05/03 01:51:17;;;;;;;5.25;4.72;;;5.70;99.90;;;;;;2094162;28;20020;-70
2023/05/03 01:52:18;;;;;;;6.00;4.30;;;5.70;99.90;;;;;;2095365;28;20502;-70
2023/05/03 01:53:19;;;;;;;5.97;5.30;;;5.70;99.90;;;;;;2097262;28;20028;-70
2023/05/03 01:54:20;;;;;;;5.32;4.30;;;5.70;99.90;;;;;;2094994;28;20388;-70
2023/05/03 01:55:21;;;;;;;6.93;5.10;;;5.70;99.90;;;;;;2092579;28;20060;-70
2023/05/03 01:56:21;;;;;;;6.93;4.22;;;5.70;99.90;;;;;;2094320;28;20035;-70
2023/05/03 01:57:22;;;;;;;5.60;4.18;;;5.70;99.90;;;;;;2092162;28;20028;-70
2023/05/03 01:58:22;;;;;;;5.80;4.93;;;5.70;99.90;;;;;;2092092;28;20017;-70
2023/05/03 01:59:23;;;;;;;7.00;4.60;;;5.70;99.90;;;;;;2092129;28;20151;-70
2023/05/03 02:00:24;;;;;;;5.47;4.53;;;5.70;99.90;;;;;;2091292;28;20029;-70
2023/05/03 02:01:25;;;;;;;4.72;3.78;;;5.70;99.90;;;;;;2092124;28;20702;-70
2023/05/03 02:02:25;;;;;;;7.22;4.63;;;5.60;99.90;;;;;;2092861;28;20021;-70
2023/05/03 02:03:26;;;;;;;5.75;4.30;;;5.60;99.90;;;;;;2094912;28;20448;-70
2023/05/03 02:04:27;;;;;;;7.28;4.60;;;5.60;99.90;;;;;;2090421;28;20029;-70
2023/05/03 02:05:28;;;;;;;8.23;4.50;;;5.60;99.90;;;;;;2092803;28;20117;-70
2023/05/03 02:06:28;;;;;;;5.53;4.55;;;5.60;99.90;;;;;;2095702;28;20024;-70
2023/05/03 02:07:29;;;;;;;5.55;4.80;;;5.60;99.90;;;;;;2092780;28;20048;-70
2023/05/03 02:08:29;;;;;;;7.15;5.10;;;5.60;99.90;;;;;;2096581;28;20043;-70
2023/05/03 02:09:30;;;;;;;6.05;4.63;;;5.60;99.90;;;;;;2094673;28;20888;-70
2023/05/03 02:10:30;;;;;;;8.82;5.13;;;5.60;99.90;;;;;;2092967;28;20033;-70
2023/05/03 02:11:31;;;;;;;7.97;5.85;;;5.60;99.90;;;;;;2096489;28;20111;-70
2023/05/03 02:12:31;;;;;;;6.60;5.47;;;5.60;99.90;;;;;;2089529;28;20481;-70
2023/05/03 02:13:32;;;;;;;6.68;5.10;;;5.60;99.90;;;;;;2092563;28;20025;-70
2023/05/03 02:14:32;;;;;;;8.48;6.18;;;5.60;99.90;;;;;;2091870;28;20034;-70
2023/05/03 02:15:33;;;;;;;6.57;4.90;;;5.60;99.90;;;;;;2093304;28;20029;-70
2023/05/03 02:16:33;;;;;;;9.57;6.32;;;5.60;99.90;;;;;;2094411;28;20053;-70
2023/05/03 02:17:34;;;;;;;7.57;5.43;;;5.60;99.90;;;;;;2091492;28;20028;-70
2023/05/03 02:18:35;;;;;;;6.18;4.95;;;5.50;99.90;;;;;;2093067;28;20025;-70
2023/05/03 02:19:36;;;;;;;6.07;4.85;;;5.50;99.90;;;;;;2091499;28;20024;-70
2023/05/03 02:20:37;;;;;;;5.85;5.35;;;5.50;99.90;;;;;;2089009;28;20040;-70
2023/05/03 02:21:37;;;;;;;5.45;4.82;;;5.50;99.90;;;;;;2091308;28;20070;-70
2023/05/03 02:22:38;;;;;;;6.68;4.85;;;5.50;99.90;;;;;;2090648;28;20082;-70
2023/05/03 02:23:39;;;;;;;6.32;4.80;;;5.50;99.90;;;;;;2092620;28;20017;-70
2023/05/03 02:24:39;;;;;;;5.80;5.20;;;5.50;99.90;;;;;;2093656;28;20021;-70
2023/05/03 02:25:40;;;;;;;5.10;4.65;;;5.50;99.90;;;;;;2092705;28;20045;-70
2023/05/03 02:26:41;;;;;;;6.60;5.10;;;5.40;99.90;;;;;;2092682;28;20414;-70
2023/05/03 02:27:41;;;;;;;5.47;4.88;;;5.50;99.90;;;;;;2093057;28;20021;-70
2023/05/03 02:28:42;;;;;;;6.82;5.00;;;5.50;99.90;;;;;;2091793;28;20108;-70
2023/05/03 02:29:42;;;;;;;7.95;5.30;;;5.40;99.90;;;;;;2091831;28;20036;-70
2023/05/03 02:30:43;;;;;;;5.22;4.80;;;5.50;99.90;;;;;;2091323;28;20029;-70
2023/05/03 02:31:43;;;;;;;6.80;5.30;;;5.40;99.90;;;;;;2094005;28;20419;-70
2023/05/03 02:32:44;;;;;;;5.68;4.65;;;5.40;99.90;;;;;;2094051;28;21208;-70
2023/05/03 02:33:44;;;;;;;5.90;4.97;;;5.40;99.90;;;;;;2093368;28;20039;-70
2023/05/03 02:34:48;;;;;;;5.38;4.60;;;5.40;99.90;;;;;;2091501;28;20039;-70
2023/05/03 02:35:48;;;;;;;6.47;4.97;;;5.40;99.90;;;;;;2089933;28;20032;-70
2023/05/03 02:36:49;;;;;;;5.95;5.28;;;5.40;99.90;;;;;;2090785;28;20042;-70
2023/05/03 02:37:50;;;;;;;7.00;5.03;;;5.40;99.90;;;;;;2092592;28;20028;-70
2023/05/03 02:38:50;;;;;;;7.47;5.35;;;5.40;99.90;;;;;;2093499;28;20043;-70
2023/05/03 02:39:51;;;;;;;6.25;5.15;;;5.40;99.90;;;;;;2091809;28;20032;-70
2023/05/03 02:40:51;;;;;;;6.07;4.57;;;5.40;99.90;;;;;;2088910;28;20032;-70
2023/05/03 02:41:52;;;;;;;5.05;4.60;;;5.40;99.90;;;;;;2091876;28;20404;-70
2023/05/03 02:42:52;;;;;;;5.18;4.68;;;5.40;99.90;;;;;;2092637;28;20050;-70
2023/05/03 02:43:53;;;;;;;5.20;4.63;;;5.40;99.90;;;;;;2091548;28;20028;-70
2023/05/03 02:44:53;;;;;;;6.35;4.50;;;5.40;99.90;;;;;;2091774;28;20458;-70
2023/05/03 02:45:54;;;;;;;5.35;4.53;;;5.40;99.90;;;;;;2092852;28;20214;-70
2023/05/03 02:46:54;;;;;;;5.47;4.70;;;5.40;99.90;;;;;;2090874;28;20024;-70
2023/05/03 02:47:55;;;;;;;7.45;4.50;;;5.40;99.90;;;;;;2091621;28;20036;-70
2023/05/03 02:48:55;;;;;;;5.00;4.40;;;5.40;99.90;;;;;;2092141;28;20043;-70
2023/05/03 02:49:56;;;;;;;4.93;4.47;;;5.40;99.90;;;;;;2090292;28;20033;-70
2023/05/03 02:50:57;;;;;;;6.75;4.70;;;5.40;99.90;;;;;;2091951;28;20040;-71
2023/05/03 02:51:57;;;;;;;5.22;4.20;;;5.40;99.90;;;;;;2091644;28;20408;-71
2023/05/03 02:52:58;;;;;;;7.95;5.57;;;5.40;99.90;;;;;;2091640;28;20036;-70
2023/05/03 02:53:58;;;;;;;6.35;4.95;;;5.40;99.90;;;;;;2090958;28;20486;-70
2023/05/03 02:54:59;;;;;;;4.55;4.15;;;5.30;99.90;;;;;;2091622;28;20032;-71
2023/05/03 02:55:59;;;;;;;6.63;4.05;;;5.40;99.90;;;;;;2093066;28;20029;-70
2023/05/03 02:57:01;;;;;;;6.47;4.47;;;5.30;99.90;;;;;;2093320;28;20024;-71
2023/05/03 02:58:01;;;;;;;7.53;4.57;;;5.40;99.90;;;;;;2090470;28;20040;-70
2023/05/03 02:59:02;;;;;;;4.50;4.05;;;5.40;99.90;;;;;;2091423;28;20021;-70
2023/05/03 03:00:04;;;;;;;6.90;4.95;;;5.40;99.90;;;;;;2091969;28;20040;-70
2023/05/03 03:01:05;;;;;;;4.65;4.20;;;5.30;99.90;;;;;;2091412;28;20024;-70
2023/05/03 03:02:05;;;;;;;5.18;4.30;;;5.30;99.90;;;;;;2091330;28;20058;-70
2023/05/03 03:03:06;;;;;;;5.45;4.70;;;5.30;99.90;;;;;;2092241;28;20055;-70
2023/05/03 03:04:06;;;;;;;7.53;5.03;;;5.30;99.90;;;;;;2093006;28;20029;-70
2023/05/03 03:05:08;;;;;;;5.50;4.88;;;5.30;99.90;;;;;;2090214;28;20044;-70
2023/05/03 03:06:08;;;;;;;5.00;4.47;;;5.30;99.90;;;;;;2093035;28;20443;-70
2023/05/03 03:07:09;;;;;;;6.07;4.65;;;5.30;99.90;;;;;;2093248;28;20385;-70
2023/05/03 03:08:09;;;;;;;10.13;4.72;;;5.30;99.90;;;;;;2092699;28;20099;-70
2023/05/03 03:09:11;;;;;;;6.47;5.15;;;5.30;99.90;;;;;;2092644;28;20036;-70
2023/05/03 03:10:12;;;;;;;9.05;4.50;;;5.30;99.90;;;;;;2092208;28;20032;-71
2023/05/03 03:11:12;;;;;;;6.05;4.70;;;5.30;99.90;;;;;;2093632;28;20027;-70
2023/05/03 03:12:13;;;;;;;6.78;4.47;;;5.30;99.90;;;;;;2093192;28;20420;-70
2023/05/03 03:13:14;;;;;;;5.13;4.38;;;5.30;99.90;;;;;;2092161;28;20443;-70
2023/05/03 03:14:14;;;;;;;8.05;5.57;;;5.30;99.90;;;;;;2093293;28;20071;-70
2023/05/03 03:15:15;;;;;;;6.38;5.18;;;5.30;99.90;;;;;;2093107;28;20700;-70
2023/05/03 03:16:15;;;;;;;5.45;4.43;;;5.30;99.90;;;;;;2093722;28;20032;-70
2023/05/03 03:17:16;;;;;;;5.38;3.65;;;5.30;99.90;;;;;;2094243;28;20515;-70
2023/05/03 03:18:16;;;;;;;5.45;4.60;;;5.30;99.90;;;;;;2091126;28;20081;-70
2023/05/03 03:19:17;;;;;;;8.02;5.20;;;5.30;99.90;;;;;;2092097;28;20040;-70
2023/05/03 03:20:18;;;;;;;7.22;4.38;;;5.30;99.90;;;;;;2091004;28;20029;-70
2023/05/03 03:21:18;;;;;;;7.68;4.45;;;5.30;99.90;;;;;;2089399;28;20086;-70
2023/05/03 03:22:19;;;;;;;5.03;3.85;;;5.30;99.90;;;;;;2090192;28;20120;-70
2023/05/03 03:23:20;;;;;;;5.63;4.53;;;5.30;99.90;;;;;;2089285;28;20029;-70
2023/05/03 03:24:20;;;;;;;7.72;4.32;;;5.30;99.90;;;;;;2091052;28;20120;-70
2023/05/03 03:25:21;;;;;;;4.88;4.47;;;5.30;99.90;;;;;;2092963;28;20020;-70
2023/05/03 03:26:22;;;;;;;5.15;4.43;;;5.30;99.90;;;;;;2092174;28;20039;-70
2023/05/03 03:27:22;;;;;;;4.63;4.07;;;5.30;99.90;;;;;;2090961;28;20412;-70
2023/05/03 03:28:23;;;;;;;4.38;3.53;;;5.30;99.90;;;;;;2094206;28;20038;-70
2023/05/03 03:29:24;;;;;;;4.88;4.00;;;5.30;99.90;;;;;;2092207;28;20108;-70
2023/05/03 03:30:24;;;;;;;7.45;4.47;;;5.30;99.90;;;;;;2090414;28;20028;-70
2023/05/03 03:31:25;;;;;;;4.80;4.28;;;5.30;99.90;;;;;;2089511;28;20031;-70
2023/05/03 03:32:25;;;;;;;6.70;4.13;;;5.30;99.90;;;;;;2091241;28;20507;-70
2023/05/03 03:33:26;;;;;;;7.03;4.20;;;5.30;99.90;;;;;;2092843;28;20036;-70
2023/05/03 03:34:26;;;;;;;4.47;3.97;;;5.30;99.90;;;;;;2090308;28;20119;-70
2023/05/03 03:35:27;;;;;;;4.38;3.97;;;5.30;99.90;;;;;;2091267;28;20124;-70
2023/05/03 03:36:28;;;;;;;4.28;3.83;;;5.30;99.90;;;;;;2093472;28;20105;-70
2023/05/03 03:37:28;;;;;;;4.93;4.47;;;5.30;99.90;;;;;;2091107;28;20112;-70
2023/05/03 03:38:29;;;;;;;4.45;3.65;;;5.30;99.90;;;;;;2092492;28;20392;-70
2023/05/03 03:39:29;;;;;;;5.43;4.20;;;5.30;99.90;;;;;;2092995;28;20021;-70
2023/05/03 03:40:30;;;;;;;5.63;4.55;;;5.30;99.90;;;;;;2091238;28;20032;-70
2023/05/03 03:41:34;;;;;;;6.68;4.55;;;5.30;99.90;;;;;;2095797;28;20029;-70
2023/05/03 03:42:35;;;;;;;5.50;4.82;;;5.30;99.90;;;;;;2091090;28;20029;-70
2023/05/03 03:43:35;;;;;;;3.80;3.47;;;5.30;99.90;;;;;;2091678;28;20016;-70
2023/05/03 03:44:36;;;;;;;6.82;4.00;;;5.30;99.90;;;;;;2093518;28;20052;-70
2023/05/03 03:45:36;;;;;;;4.90;4.38;;;5.30;99.90;;;;;;2093294;28;20029;-70
2023/05/03 03:46:37;;;;;;;10.52;5.82;;;5.30;99.90;;;;;;2094731;28;20075;-70
2023/05/03 03:47:37;;;;;;;5.78;4.35;;;5.30;99.90;;;;;;2092895;28;20404;-70
2023/05/03 03:48:38;;;;;;;4.43;3.80;;;5.30;99.90;;;;;;2091566;28;20581;-70
2023/05/03 03:49:39;;;;;;;4.32;3.88;;;5.30;99.90;;;;;;2093555;28;20869;-70
2023/05/03 03:50:39;;;;;;;4.65;4.20;;;5.20;99.90;;;;;;2089132;28;20036;-70
2023/05/03 03:51:40;;;;;;;4.68;4.05;;;5.30;99.90;;;;;;2091861;28;20116;-70
2023/05/03 03:52:41;;;;;;;7.05;4.22;;;5.20;99.90;;;;;;2093446;28;20397;-70
2023/05/03 03:53:41;;;;;;;5.10;4.60;;;5.20;99.90;;;;;;2091952;28;20059;-70
2023/05/03 03:54:42;;;;;;;6.63;4.72;;;5.20;99.90;;;;;;2093351;28;20073;-70
2023/05/03 03:55:43;;;;;;;7.03;5.00;;;5.20;99.90;;;;;;2091679;28;20032;-70
2023/05/03 03:56:43;;;;;;;5.22;4.55;;;5.20;99.90;;;;;;2090096;28;20097;-70
2023/05/03 03:57:44;;;;;;;5.18;4.60;;;5.20;99.90;;;;;;2093921;28;20038;-70
2023/05/03 03:58:45;;;;;;;8.50;4.78;;;5.20;99.90;;;;;;2090841;28;20017;-70
2023/05/03 03:59:45;;;;;;;6.35;4.53;;;5.20;99.90;;;;;;2092298;28;20036;-70
2023/05/03 04:00:46;;;;;;;8.30;4.43;;;5.20;99.90;;;;;;2092149;28;20032;-70
2023/05/03 04:01:47;;;;;;;7.43;4.85;;;5.20;99.90;;;;;;2092641;28;20057;-70
2023/05/03 04:02:47;;;;;;;6.53;4.90;;;5.30;99.90;;;;;;2092201;28;20113;-70
2023/05/03 04:03:48;;;;;;;6.75;4.10;;;5.20;99.90;;;;;;2092923;28;20081;-70
2023/05/03 04:04:48;;;;;;;6.13;4.40;;;5.20;99.90;;;;;;2091963;28;20106;-71
2023/05/03 04:05:49;;;;;;;5.30;4.78;;;5.20;99.90;;;;;;2092147;28;20472;-70
2023/05/03 04:06:50;;;;;;;4.70;3.97;;;5.20;99.90;;;;;;2092022;28;20029;-70
2023/05/03 04:07:51;;;;;;;5.85;4.10;;;5.20;99.90;;;;;;2091783;28;20031;-70
2023/05/03 04:08:51;;;;;;;7.95;4.88;;;5.20;99.90;;;;;;2092907;28;20024;-70
2023/05/03 04:09:52;;;;;;;5.75;4.20;;;5.20;99.90;;;;;;2093993;28;20882;-70
2023/05/03 04:10:52;;;;;;;5.50;4.35;;;5.20;99.90;;;;;;2093944;28;20079;-70
2023/05/03 04:11:53;;;;;;;5.70;4.07;;;5.20;99.90;;;;;;2095185;28;20127;-70
2023/05/03 04:12:54;;;;;;;7.15;4.80;;;5.20;99.90;;;;;;2091850;28;20756;-70
2023/05/03 04:13:55;;;;;;;6.32;5.65;;;5.20;99.90;;;;;;2090216;28;20029;-70
2023/05/03 04:14:56;;;;;;;6.32;4.65;;;5.20;99.90;;;;;;2094534;28;20020;-70
2023/05/03 04:15:56;;;;;;;7.70;5.25;;;5.20;99.90;;;;;;2091280;28;20024;-70
2023/05/03 04:16:57;;;;;;;6.25;4.50;;;5.20;99.90;;;;;;2092288;28;20144;-70
2023/05/03 04:17:57;;;;;;;8.00;5.18;;;5.20;99.90;;;;;;2093016;28;20033;-70
2023/05/03 04:18:58;;;;;;;6.63;5.03;;;5.20;99.90;;;;;;2091751;28;20028;-70
2023/05/03 04:19:58;;;;;;;8.30;6.20;;;5.20;99.90;;;;;;2091645;28;20707;-70
2023/05/03 04:20:59;;;;;;;13.43;6.80;;;5.20;99.90;;;;;;2092259;28;20085;-70
2023/05/03 04:21:59;;;;;;;8.38;6.07;;;5.20;99.90;;;;;;2091658;28;20487;-70
2023/05/03 04:23:01;;;;;;;8.25;6.63;;;5.20;99.90;;;;;;2095828;28;20048;-70
2023/05/03 04:24:04;;;;;;;9.85;6.93;;;5.20;99.90;;;;;;2092480;28;20031;-70
2023/05/03 04:25:07;;;;;;;8.48;6.72;;;5.20;99.90;;;;;;2093001;28;20155;-70
2023/05/03 04:26:09;;;;;;;7.93;6.70;;;5.20;99.90;;;;;;2092943;28;20051;-70
2023/05/03 04:27:10;;;;;;;16.50;7.60;;;5.20;99.90;;;;;;2093933;28;20021;-70
2023/05/03 04:28:12;;;;;;;10.95;7.03;;;5.30;99.90;;;;;;2093218;28;20148;-70
2023/05/03 04:29:13;;;;;;;8.98;7.18;;;5.30;99.90;;;;;;2093444;28;20028;-70
2023/05/03 04:30:14;;;;;;;11.90;8.25;;;5.30;99.90;;;;;;2095197;28;20055;-70
2023/05/03 04:31:15;;;;;;;14.18;7.53;;;5.30;99.90;;;;;;2094894;28;20025;-70
2023/05/03 04:32:15;;;;;;;13.75;7.50;;;5.30;99.90;;;;;;2095130;28;20079;-70
2023/05/03 04:33:16;;;;;;;10.18;7.72;;;5.40;99.90;;;;;;2091165;28;20107;-71
2023/05/03 04:34:17;;;;;;;11.30;7.00;;;5.40;99.90;;;;;;2097318;28;20522;-70
2023/05/03 04:35:18;;;;;;;9.70;7.13;;;5.40;99.90;;;;;;2094892;28;20384;-70
2023/05/03 04:36:21;;;;;;;11.70;7.60;;;5.40;99.90;;;;;;2090687;28;20037;-70
2023/05/03 04:37:22;;;;;;;13.00;7.47;;;5.40;99.90;;;;;;2095496;28;20044;-71
2023/05/03 04:38:22;;;;;;;10.02;7.00;;;5.40;99.90;;;;;;2095359;28;20027;-70
2023/05/03 04:39:23;;;;;;;10.73;6.88;;;5.40;99.90;;;;;;2095347;28;20017;-70
2023/05/03 04:40:24;;;;;;;12.05;8.10;;;5.50;99.90;;;;;;2091975;28;20979;-70
2023/05/03 04:41:25;;;;;;;10.07;7.50;;;5.50;99.90;;;;;;2092543;28;20025;-70
2023/05/03 04:42:25;;;;;;;9.43;7.28;;;5.50;99.90;;;;;;2092033;28;20035;-70
2023/05/03 04:43:26;;;;;;;11.93;7.75;;;5.50;99.90;;;;;;2090627;28;20718;-70
2023/05/03 04:44:27;;;;;;;12.07;7.57;;;5.50;99.90;;;;;;2091878;28;20036;-70
2023/05/03 04:45:27;;;;;;;11.35;8.23;;;5.50;99.90;;;;;;2095365;28;20027;-70
2023/05/03 04:46:28;;;;;;;12.63;7.93;;;5.50;99.90;;;;;;2097798;28;20028;-70
2023/05/03 04:47:29;;;;;;;10.10;7.57;;;5.50;99.90;;;;;;2095238;28;20035;-70
2023/05/03 04:48:30;;;;;;;9.55;7.03;;;5.50;99.90;;;;;;2093680;28;20024;-70
2023/05/03 04:49:33;;;;;;;7.63;6.88;;;5.60;99.90;;;;;;2098094;28;20074;-70
2023/05/03 04:50:33;;;;;;;11.68;7.30;;;5.60;99.90;;;;;;2096749;28;20027;-70
2023/05/03 04:51:34;;;;;;;13.10;7.35;;;5.60;99.90;;;;;;2094754;28;20025;-70
2023/05/03 04:52:34;;;;;;;12.95;7.72;;;5.60;99.90;;;;;;2094372;28;20384;-70
2023/05/03 04:53:35;;;;;;;10.68;7.32;;;5.70;99.90;;;;;;2092829;28;20024;-70
2023/05/03 04:54:36;;;;;;;10.02;6.45;;;5.70;99.90;;;;;;2096011;28;20026;-70
2023/05/03 04:55:36;;;;;;;9.98;7.43;;;5.70;99.90;;;;;;2094576;28;20055;-70
2023/05/03 04:56:37;;;;;;;8.05;7.25;;;5.70;99.90;;;;;;2094249;28;20024;-70
2023/05/03 04:57:37;;;;;;;12.82;7.45;;;5.70;99.90;;;;;;2094423;28;20024;-70
2023/05/03 04:58:38;;;;;;;7.72;6.93;;;5.80;99.90;;;;;;2093469;28;20104;-70
2023/05/03 04:59:38;;;;;;;13.85;7.57;;;5.80;99.90;;;;;;2094213;28;20025;-70
2023/05/03 05:00:41;;;;;;;14.18;8.00;;;5.80;99.90;;;;;;2092635;28;20036;-70
2023/05/03 05:01:41;;;;;;;12.93;6.82;;;5.80;99.90;;;;;;2093635;28;20025;-70
2023/05/03 05:02:42;;;;;;;11.57;7.68;;;5.90;99.90;;;;;;2092544;28;20021;-70
2023/05/03 05:03:43;;;;;;;15.32;8.23;;;5.90;99.90;;;;;;2093959;28;20024;-70
2023/05/03 05:04:43;;;;;;;13.27;8.07;;;5.90;99.90;;;;;;2093557;28;20063;-70
2023/05/03 05:05:45;;;;;;;9.10;7.47;;;5.90;99.90;;;;;;2092797;28;20508;-70
2023/05/03 05:06:45;;;;;;;13.45;6.82;;;5.90;99.90;;;;;;2094180;28;20025;-70
2023/05/03 05:07:46;;;;;;;11.18;7.13;;;6.00;99.90;;;;;;2094718;28;20017;-70
2023/05/03 05:08:46;;;;;;;16.00;8.05;;;6.00;99.90;;;;;;2092263;28;20503;-70
2023/05/03 05:09:47;;;;;;;9.95;7.45;;;6.00;99.90;;;;;;2093095;28;20426;-70
2023/05/03 05:10:47;;;;;;;9.90;6.93;;;6.00;99.90;;;;;;2093743;28;20032;-70
2023/05/03 05:11:48;;;;;;;11.75;7.05;;;6.10;99.90;;;;;;2094025;28;20032;-70
2023/05/03 05:12:49;;;;;;;10.63;7.30;;;6.10;99.90;;;;;;2091538;28;20079;-70
2023/05/03 05:13:49;;;;;;;12.13;8.15;;;6.10;99.90;;;;;;2093602;28;20032;-70
2023/05/03 05:14:50;;;;;;;11.02;7.30;;;6.20;99.90;;;;;;2093588;28;20086;-70
2023/05/03 05:15:50;;;;;;;8.00;6.85;;;6.20;99.90;;;;;;2092083;28;20025;-70
2023/05/03 05:16:51;;;;;;;11.35;7.68;;;6.20;99.90;;;;;;2090538;28;20029;-70
2023/05/03 05:17:52;;;;;;;9.98;7.28;;;6.20;99.90;;;;;;2093432;28;20020;-70
2023/05/03 05:18:52;;;;;;;10.15;7.60;;;6.30;99.90;;;;;;2094995;28;20025;-70
2023/05/03 05:19:53;;;;;;;12.32;7.72;;;6.30;99.90;;;;;;2091476;28;20110;-70
2023/05/03 05:20:53;;;;;;;8.52;7.20;;;6.40;99.90;;;;;;2095168;28;20664;-70
2023/05/03 05:21:54;;;;;;;9.32;7.05;;;6.40;99.90;;;;;;2095705;28;20112;-70
2023/05/03 05:22:55;;;;;;;8.15;6.97;;;6.50;99.90;;;;;;2091241;28;20055;-70
2023/05/03 05:23:55;;;;;;;11.70;7.43;;;6.60;99.90;;;;;;2095461;28;20037;-70
2023/05/03 05:24:56;;;;;;;9.32;7.28;;;6.60;99.90;;;;;;2093637;28;20025;-70